sensor_id;sensor_type;location;lat;lon;timestamp;pressure;altitude;pressure_sealevel;temperature;humidity
4570;BME280;2297;51.442;6.996;2023-05-22T00:00:48;100139.34;;;21.20;48.44
4570;BME280;2297;51.442;6.996;2023-05-22T00:03:17;100132.47;;;21.16;48.38
4570;BME280;2297;51.442;6.996;2023-05-22T00:05:43;100137.63;;;21.19;48.51
4570;BME280;2297;51.442;6.996;2023-05-22T00:08:10;100132.25;;;21.19;48.58
4570;BME280;2297;51.442;6.996;2023-05-22T00:10:37;100134.19;;;21.17;48.93
4570;BME280;2297;51.442;6.996;2023-05-22T00:13:05;100131.75;;;21.14;49.16
4570;BME280;2297;51.442;6.996;2023-05-22T00:15:32;100124.94;;;21.08;49.64
4570;BME280;2297;51.442;6.996;2023-05-22T00:17:59;100132.44;;;21.03;49.95
4570;BME280;2297;51.442;6.996;2023-05-22T00:20:25;100123.31;;;21.05;49.85
4570;BME280;2297;51.442;6.996;2023-05-22T00:22:52;100119.13;;;21.01;50.15
4570;BME280;2297;51.442;6.996;2023-05-22T00:25:21;100121.38;;;20.94;50.13
4570;BME280;2297;51.442;6.996;2023-05-22T00:27:47;100120.31;;;20.97;50.34
4570;BME280;2297;51.442;6.996;2023-05-22T00:30:15;100112.91;;;21.01;50.37
4570;BME280;2297;51.442;6.996;2023-05-22T00:32:42;100114.41;;;21.05;50.22
4570;BME280;2297;51.442;6.996;2023-05-22T00:35:09;100111.97;;;21.02;50.32
4570;BME280;2297;51.442;6.996;2023-05-22T00:37:35;100111.28;;;20.98;50.25
4570;BME280;2297;51.442;6.996;2023-05-22T00:40:03;100112.91;;;21.01;50.20
4570;BME280;2297;51.442;6.996;2023-05-22T00:42:30;100103.47;;;20.95;50.26
4570;BME280;2297;51.442;6.996;2023-05-22T00:44:56;100112.25;;;20.97;50.24
4570;BME280;2297;51.442;6.996;2023-05-22T00:47:24;100110.53;;;20.96;50.09
4570;BME280;2297;51.442;6.996;2023-05-22T00:49:51;100110.53;;;20.96;50.37
4570;BME280;2297;51.442;6.996;2023-05-22T00:52:18;100111.81;;;20.90;50.52
4570;BME280;2297;51.442;6.996;2023-05-22T00:54:45;100113.09;;;20.85;50.57
4570;BME280;2297;51.442;6.996;2023-05-22T00:57:12;100111.25;;;20.85;50.76
4570;BME280;2297;51.442;6.996;2023-05-22T00:59:39;100115.66;;;20.86;50.71
4570;BME280;2297;51.442;6.996;2023-05-22T01:02:06;100117.19;;;20.90;50.88
4570;BME280;2297;51.442;6.996;2023-05-22T01:04:34;100113.44;;;20.93;50.90
4570;BME280;2297;51.442;6.996;2023-05-22T01:07:01;100113.66;;;20.90;50.96
4570;BME280;2297;51.442;6.996;2023-05-22T01:09:30;100115.16;;;20.94;50.85
4570;BME280;2297;51.442;6.996;2023-05-22T01:12:00;100121.88;;;20.87;51.04
4570;BME280;2297;51.442;6.996;2023-05-22T01:14:37;100107.72;;;20.85;51.01
4570;BME280;2297;51.442;6.996;2023-05-22T01:17:14;100119.41;;;20.84;51.26
4570;BME280;2297;51.442;6.996;2023-05-22T01:20:04;100126.50;;;20.85;51.34
4570;BME280;2297;51.442;6.996;2023-05-22T01:23:05;100125.19;;;20.77;51.47
4570;BME280;2297;51.442;6.996;2023-05-22T01:25:57;100135.19;;;20.75;51.61
4570;BME280;2297;51.442;6.996;2023-05-22T01:28:41;100120.25;;;20.71;51.89
4570;BME280;2297;51.442;6.996;2023-05-22T01:31:15;100125.69;;;20.70;51.60
4570;BME280;2297;51.442;6.996;2023-05-22T01:33:45;100119.38;;;20.71;51.58
4570;BME280;2297;51.442;6.996;2023-05-22T01:36:14;100114.00;;;20.71;51.66
4570;BME280;2297;51.442;6.996;2023-05-22T01:38:45;100114.13;;;20.69;51.25
4570;BME280;2297;51.442;6.996;2023-05-22T01:41:12;100114.47;;;20.63;51.33
4570;BME280;2297;51.442;6.996;2023-05-22T01:43:39;100114.69;;;20.60;51.47
4570;BME280;2297;51.442;6.996;2023-05-22T01:46:06;100111.06;;;20.61;51.17
4570;BME280;2297;51.442;6.996;2023-05-22T01:48:34;100113.19;;;20.56;51.20
4570;BME280;2297;51.442;6.996;2023-05-22T01:51:04;100108.22;;;20.50;51.38
4570;BME280;2297;51.442;6.996;2023-05-22T01:53:42;100101.88;;;20.51;51.35
4570;BME280;2297;51.442;6.996;2023-05-22T01:56:13;100099.22;;;20.51;51.61
4570;BME280;2297;51.442;6.996;2023-05-22T01:58:44;100096.41;;;20.52;51.12
4570;BME280;2297;51.442;6.996;2023-05-22T02:01:13;100093.50;;;20.42;51.49
4570;BME280;2297;51.442;6.996;2023-05-22T02:03:41;100096.91;;;20.44;51.58
4570;BME280;2297;51.442;6.996;2023-05-22T02:06:10;100091.56;;;20.44;51.61
4570;BME280;2297;51.442;6.996;2023-05-22T02:08:40;100087.91;;;20.45;51.52
4570;BME280;2297;51.442;6.996;2023-05-22T02:11:09;100085.44;;;20.42;51.63
4570;BME280;2297;51.442;6.996;2023-05-22T02:13:36;100081.81;;;20.43;51.46
4570;BME280;2297;51.442;6.996;2023-05-22T02:16:04;100082.00;;;20.40;51.46
4570;BME280;2297;51.442;6.996;2023-05-22T02:18:31;100085.66;;;20.39;51.41
4570;BME280;2297;51.442;6.996;2023-05-22T02:20:59;100080.38;;;20.38;51.67
4570;BME280;2297;51.442;6.996;2023-05-22T02:23:27;100084.13;;;20.35;51.53
4570;BME280;2297;51.442;6.996;2023-05-22T02:25:54;100081.53;;;20.34;51.73
4570;BME280;2297;51.442;6.996;2023-05-22T02:28:21;100078.97;;;20.32;51.61
4570;BME280;2297;51.442;6.996;2023-05-22T02:30:47;100073.81;;;20.29;51.51
4570;BME280;2297;51.442;6.996;2023-05-22T02:33:14;100066.50;;;20.31;51.42
4570;BME280;2297;51.442;6.996;2023-05-22T02:35:42;100073.59;;;20.32;51.40
4570;BME280;2297;51.442;6.996;2023-05-22T02:38:10;100064.81;;;20.30;51.14
4570;BME280;2297;51.442;6.996;2023-05-22T02:40:37;100071.69;;;20.34;50.92
4570;BME280;2297;51.442;6.996;2023-05-22T02:43:03;100069.97;;;20.33;50.85
4570;BME280;2297;51.442;6.996;2023-05-22T02:45:30;100070.72;;;20.35;50.92
4570;BME280;2297;51.442;6.996;2023-05-22T02:47:56;100068.03;;;20.35;50.80
4570;BME280;2297;51.442;6.996;2023-05-22T02:50:25;100063.34;;;20.39;50.77
4570;BME280;2297;51.442;6.996;2023-05-22T02:52:52;100065.34;;;20.35;50.65
4570;BME280;2297;51.442;6.996;2023-05-22T02:55:20;100056.56;;;20.33;50.77
4570;BME280;2297;51.442;6.996;2023-05-22T02:57:46;100051.94;;;20.35;50.56
4570;BME280;2297;51.442;6.996;2023-05-22T03:00:14;100057.53;;;20.32;50.45
4570;BME280;2297;51.442;6.996;2023-05-22T03:02:41;100047.19;;;20.26;50.52
4570;BME280;2297;51.442;6.996;2023-05-22T03:05:08;100036.69;;;20.23;50.73
4570;BME280;2297;51.442;6.996;2023-05-22T03:07:34;100043.97;;;20.21;50.88
4570;BME280;2297;51.442;6.996;2023-05-22T03:10:01;100046.66;;;20.21;50.93
4570;BME280;2297;51.442;6.996;2023-05-22T03:12:29;100043.22;;;20.19;50.87
4570;BME280;2297;51.442;6.996;2023-05-22T03:14:58;100039.00;;;20.15;51.05
4570;BME280;2297;51.442;6.996;2023-05-22T03:17:25;100042.84;;;20.10;51.18
4570;BME280;2297;51.442;6.996;2023-05-22T03:19:52;100043.59;;;20.13;51.19
4570;BME280;2297;51.442;6.996;2023-05-22T03:22:18;100044.75;;;20.08;51.39
4570;BME280;2297;51.442;6.996;2023-05-22T03:24:45;100038.75;;;20.05;51.58
4570;BME280;2297;51.442;6.996;2023-05-22T03:27:13;100043.03;;;20.07;51.52
4570;BME280;2297;51.442;6.996;2023-05-22T03:29:42;100036.94;;;20.05;51.59
4570;BME280;2297;51.442;6.996;2023-05-22T03:32:09;100045.81;;;20.06;51.53
4570;BME280;2297;51.442;6.996;2023-05-22T03:34:35;100043.44;;;20.01;51.76
4570;BME280;2297;51.442;6.996;2023-05-22T03:37:02;100049.56;;;20.03;51.87
4570;BME280;2297;51.442;6.996;2023-05-22T03:39:29;100043.72;;;19.97;51.93
4570;BME280;2297;51.442;6.996;2023-05-22T03:41:55;100044.50;;;19.99;51.86
4570;BME280;2297;51.442;6.996;2023-05-22T03:44:22;100043.84;;;19.95;52.10
4570;BME280;2297;51.442;6.996;2023-05-22T03:46:50;100048.25;;;19.96;52.10
4570;BME280;2297;51.442;6.996;2023-05-22T03:49:17;100056.28;;;19.96;51.94
4570;BME280;2297;51.442;6.996;2023-05-22T03:51:43;100050.72;;;19.99;52.07
4570;BME280;2297;51.442;6.996;2023-05-22T03:54:10;100047.28;;;19.97;52.05
4570;BME280;2297;51.442;6.996;2023-05-22T03:56:37;100054.44;;;19.97;52.20
4570;BME280;2297;51.442;6.996;2023-05-22T03:59:03;100056.97;;;20.00;51.98
4570;BME280;2297;51.442;6.996;2023-05-22T04:01:30;100052.66;;;19.97;52.04
4570;BME280;2297;51.442;6.996;2023-05-22T04:03:58;100053.81;;;19.93;52.05
4570;BME280;2297;51.442;6.996;2023-05-22T04:06:25;100054.06;;;19.88;52.69
4570;BME280;2297;51.442;6.996;2023-05-22T04:08:51;100053.84;;;19.91;52.63
4570;BME280;2297;51.442;6.996;2023-05-22T04:11:18;100053.72;;;19.94;52.63
4570;BME280;2297;51.442;6.996;2023-05-22T04:13:48;100041.84;;;19.99;52.30
4570;BME280;2297;51.442;6.996;2023-05-22T04:16:15;100052.56;;;19.99;52.51
4570;BME280;2297;51.442;6.996;2023-05-22T04:18:42;100047.28;;;19.97;52.63
4570;BME280;2297;51.442;6.996;2023-05-22T04:21:10;100044.72;;;19.96;52.64
4570;BME280;2297;51.442;6.996;2023-05-22T04:23:36;100046.41;;;19.97;52.62
4570;BME280;2297;51.442;6.996;2023-05-22T04:26:05;100043.84;;;19.95;52.63
4570;BME280;2297;51.442;6.996;2023-05-22T04:28:32;100051.13;;;19.93;52.82
4570;BME280;2297;51.442;6.996;2023-05-22T04:30:59;100056.50;;;19.93;53.00
4570;BME280;2297;51.442;6.996;2023-05-22T04:33:26;100057.25;;;19.95;52.92
4570;BME280;2297;51.442;6.996;2023-05-22T04:35:54;100058.00;;;19.97;52.84
4570;BME280;2297;51.442;6.996;2023-05-22T04:38:22;100061.44;;;19.99;52.76
4570;BME280;2297;51.442;6.996;2023-05-22T04:40:50;100054.34;;;19.98;52.70
4570;BME280;2297;51.442;6.996;2023-05-22T04:43:17;100056.97;;;20.00;52.76
4570;BME280;2297;51.442;6.996;2023-05-22T04:45:43;100065.63;;;20.03;52.49
4570;BME280;2297;51.442;6.996;2023-05-22T04:48:10;100067.47;;;20.03;52.86
4570;BME280;2297;51.442;6.996;2023-05-22T04:50:37;100058.59;;;20.02;52.88
4570;BME280;2297;51.442;6.996;2023-05-22T04:53:03;100057.81;;;20.00;52.83
4570;BME280;2297;51.442;6.996;2023-05-22T04:55:31;100063.38;;;19.97;52.94
4570;BME280;2297;51.442;6.996;2023-05-22T04:57:59;100061.66;;;19.96;53.04
4570;BME280;2297;51.442;6.996;2023-05-22T05:00:25;100063.56;;;19.94;53.09
4570;BME280;2297;51.442;6.996;2023-05-22T05:02:53;100058.00;;;19.97;53.12
4570;BME280;2297;51.442;6.996;2023-05-22T05:05:19;100059.31;;;19.90;53.31
4570;BME280;2297;51.442;6.996;2023-05-22T05:07:47;100067.94;;;19.81;53.58
4570;BME280;2297;51.442;6.996;2023-05-22T05:10:14;100064.69;;;19.75;53.70
4570;BME280;2297;51.442;6.996;2023-05-22T05:12:43;100064.09;;;19.85;53.45
4570;BME280;2297;51.442;6.996;2023-05-22T05:15:09;100060.69;;;19.68;53.80
4570;BME280;2297;51.442;6.996;2023-05-22T05:17:36;100064.91;;;19.72;53.81
4570;BME280;2297;51.442;6.996;2023-05-22T05:20:04;100066.88;;;19.83;53.63
4570;BME280;2297;51.442;6.996;2023-05-22T05:22:32;100067.56;;;19.87;53.41
4570;BME280;2297;51.442;6.996;2023-05-22T05:24:58;100066.50;;;19.89;53.48
4570;BME280;2297;51.442;6.996;2023-05-22T05:27:25;100058.38;;;19.91;53.30
4570;BME280;2297;51.442;6.996;2023-05-22T05:29:53;100067.94;;;19.81;53.42
4570;BME280;2297;51.442;6.996;2023-05-22T05:32:20;100064.97;;;19.85;53.38
4570;BME280;2297;51.442;6.996;2023-05-22T05:34:47;100063.34;;;19.83;53.39
4570;BME280;2297;51.442;6.996;2023-05-22T05:37:14;100071.19;;;19.86;53.73
4570;BME280;2297;51.442;6.996;2023-05-22T05:39:41;100072.81;;;19.88;53.54
4570;BME280;2297;51.442;6.996;2023-05-22T05:42:08;100070.81;;;19.92;53.47
4570;BME280;2297;51.442;6.996;2023-05-22T05:44:34;100069.09;;;19.91;53.36
4570;BME280;2297;51.442;6.996;2023-05-22T05:47:02;100072.72;;;19.90;53.12
4570;BME280;2297;51.442;6.996;2023-05-22T05:49:29;100083.44;;;19.90;53.28
4570;BME280;2297;51.442;6.996;2023-05-22T05:51:56;100078.94;;;19.90;53.30
4570;BME280;2297;51.442;6.996;2023-05-22T05:54:23;100081.06;;;19.85;53.51
4570;BME280;2297;51.442;6.996;2023-05-22T05:56:51;100082.50;;;19.76;53.92
4570;BME280;2297;51.442;6.996;2023-05-22T05:59:18;100082.50;;;19.76;54.06
4570;BME280;2297;51.442;6.996;2023-05-22T06:01:44;100082.88;;;19.70;54.11
4570;BME280;2297;51.442;6.996;2023-05-22T06:04:13;100089.59;;;19.77;54.06
4570;BME280;2297;51.442;6.996;2023-05-22T06:06:40;100085.19;;;19.62;54.41
4570;BME280;2297;51.442;6.996;2023-05-22T06:09:07;100082.50;;;19.76;54.16
4570;BME280;2297;51.442;6.996;2023-05-22T06:11:34;100076.75;;;19.83;54.19
4570;BME280;2297;51.442;6.996;2023-05-22T06:14:01;100086.22;;;19.88;53.82
4570;BME280;2297;51.442;6.996;2023-05-22T06:16:28;100088.63;;;19.64;54.69
4570;BME280;2297;51.442;6.996;2023-05-22T06:18:56;100084.78;;;19.83;54.05
4570;BME280;2297;51.442;6.996;2023-05-22T06:21:24;100088.81;;;19.61;54.49
4570;BME280;2297;51.442;6.996;2023-05-22T06:23:50;100086.13;;;19.75;54.53
4570;BME280;2297;51.442;6.996;2023-05-22T06:26:17;100085.25;;;19.89;54.30
4570;BME280;2297;51.442;6.996;2023-05-22T06:28:44;100089.50;;;19.93;54.35
4570;BME280;2297;51.442;6.996;2023-05-22T06:31:10;100083.53;;;19.74;54.53
4570;BME280;2297;51.442;6.996;2023-05-22T06:33:37;100093.41;;;19.73;54.42
4570;BME280;2297;51.442;6.996;2023-05-22T06:36:05;100085.75;;;19.53;54.89
4570;BME280;2297;51.442;6.996;2023-05-22T06:38:34;100094.16;;;19.61;54.95
4570;BME280;2297;51.442;6.996;2023-05-22T06:41:02;100097.78;;;19.31;56.05
4570;BME280;2297;51.442;6.996;2023-05-22T06:43:28;100093.41;;;19.44;56.22
4570;BME280;2297;51.442;6.996;2023-05-22T06:45:55;100101.03;;;19.22;56.36
4570;BME280;2297;51.442;6.996;2023-05-22T06:48:22;100099.50;;;19.75;55.23
4570;BME280;2297;51.442;6.996;2023-05-22T06:50:48;100104.31;;;19.99;54.53
4570;BME280;2297;51.442;6.996;2023-05-22T06:53:15;100111.97;;;20.05;54.28
4570;BME280;2297;51.442;6.996;2023-05-22T06:55:43;100104.84;;;20.19;53.97
4570;BME280;2297;51.442;6.996;2023-05-22T06:58:10;100102.59;;;19.98;53.79
4570;BME280;2297;51.442;6.996;2023-05-22T07:00:36;100106.31;;;20.10;53.83
4570;BME280;2297;51.442;6.996;2023-05-22T07:03:03;100100.28;;;20.21;53.29
4570;BME280;2297;51.442;6.996;2023-05-22T07:05:30;100111.09;;;19.90;54.13
4570;BME280;2297;51.442;6.996;2023-05-22T07:07:57;100110.03;;;20.07;53.10
4570;BME280;2297;51.442;6.996;2023-05-22T07:10:24;100104.19;;;20.15;53.08
4570;BME280;2297;51.442;6.996;2023-05-22T07:12:53;100104.06;;;20.31;52.69
4570;BME280;2297;51.442;6.996;2023-05-22T07:15:19;100105.50;;;20.37;52.95
4570;BME280;2297;51.442;6.996;2023-05-22T07:17:46;100114.56;;;20.49;52.81
4570;BME280;2297;51.442;6.996;2023-05-22T07:20:13;100118.53;;;20.56;53.12
4570;BME280;2297;51.442;6.996;2023-05-22T07:22:41;100113.69;;;19.92;55.13
4570;BME280;2297;51.442;6.996;2023-05-22T07:25:08;100118.88;;;19.95;55.40
4570;BME280;2297;51.442;6.996;2023-05-22T07:27:34;100122.59;;;20.07;55.61
4570;BME280;2297;51.442;6.996;2023-05-22T07:30:03;100112.09;;;20.31;54.69
4570;BME280;2297;51.442;6.996;2023-05-22T07:32:30;100111.31;;;20.43;54.34
4570;BME280;2297;51.442;6.996;2023-05-22T07:34:57;100116.53;;;20.59;54.07
4570;BME280;2297;51.442;6.996;2023-05-22T07:37:23;100121.63;;;20.50;54.52
4570;BME280;2297;51.442;6.996;2023-05-22T07:39:50;100119.84;;;20.63;54.35
4570;BME280;2297;51.442;6.996;2023-05-22T07:42:17;100118.53;;;20.56;54.17
4570;BME280;2297;51.442;6.996;2023-05-22T07:44:43;100120.28;;;20.15;55.55
4570;BME280;2297;51.442;6.996;2023-05-22T07:47:11;100128.00;;;20.61;54.09
4570;BME280;2297;51.442;6.996;2023-05-22T07:49:38;100134.63;;;20.70;53.72
4570;BME280;2297;51.442;6.996;2023-05-22T07:52:05;100125.22;;;20.63;54.08
4570;BME280;2297;51.442;6.996;2023-05-22T07:54:32;100130.03;;;20.58;54.44
4570;BME280;2297;51.442;6.996;2023-05-22T07:56:58;100135.00;;;20.64;54.58
4570;BME280;2297;51.442;6.996;2023-05-22T07:59:27;100122.78;;;20.45;55.50
4570;BME280;2297;51.442;6.996;2023-05-22T08:01:54;100138.91;;;20.31;55.80
4570;BME280;2297;51.442;6.996;2023-05-22T08:04:22;100136.66;;;20.25;56.20
4570;BME280;2297;51.442;6.996;2023-05-22T08:06:48;100139.72;;;20.04;56.61
4570;BME280;2297;51.442;6.996;2023-05-22T08:09:15;100125.69;;;20.42;56.28
4570;BME280;2297;51.442;6.996;2023-05-22T08:11:42;100127.81;;;20.23;57.23
4570;BME280;2297;51.442;6.996;2023-05-22T08:14:08;100133.00;;;20.68;56.04
4570;BME280;2297;51.442;6.996;2023-05-22T08:16:35;100127.06;;;21.03;54.99
4570;BME280;2297;51.442;6.996;2023-05-22T08:19:02;100139.44;;;21.05;55.17
4570;BME280;2297;51.442;6.996;2023-05-22T08:21:30;100133.50;;;21.00;55.66
4570;BME280;2297;51.442;6.996;2023-05-22T08:23:58;100128.19;;;21.26;54.46
4570;BME280;2297;51.442;6.996;2023-05-22T08:26:25;100130.63;;;21.03;54.20
4570;BME280;2297;51.442;6.996;2023-05-22T08:28:52;100131.31;;;20.80;54.76
4570;BME280;2297;51.442;6.996;2023-05-22T08:31:18;100132.03;;;20.69;55.59
4570;BME280;2297;51.442;6.996;2023-05-22T08:33:45;100128.69;;;21.05;55.17
4570;BME280;2297;51.442;6.996;2023-05-22T08:36:12;100135.91;;;21.05;55.06
4570;BME280;2297;51.442;6.996;2023-05-22T08:38:40;100137.75;;;21.30;53.92
4570;BME280;2297;51.442;6.996;2023-05-22T08:41:07;100128.84;;;21.17;54.99
4570;BME280;2297;51.442;6.996;2023-05-22T08:43:34;100137.97;;;20.87;55.90
4570;BME280;2297;51.442;6.996;2023-05-22T08:46:03;100135.72;;;20.81;56.16
4570;BME280;2297;51.442;6.996;2023-05-22T08:48:32;100146.50;;;21.47;54.41
4570;BME280;2297;51.442;6.996;2023-05-22T08:51:02;100144.69;;;21.60;53.82
4570;BME280;2297;51.442;6.996;2023-05-22T08:53:33;100141.34;;;21.43;54.34
4570;BME280;2297;51.442;6.996;2023-05-22T08:56:01;100137.06;;;21.67;53.43
4570;BME280;2297;51.442;6.996;2023-05-22T08:58:30;100150.72;;;21.51;53.87
4570;BME280;2297;51.442;6.996;2023-05-22T09:00:57;100151.88;;;21.72;53.13
4570;BME280;2297;51.442;6.996;2023-05-22T09:03:25;100140.66;;;21.91;52.32
4570;BME280;2297;51.442;6.996;2023-05-22T09:05:52;100145.84;;;21.94;52.42
4570;BME280;2297;51.442;6.996;2023-05-22T09:08:19;100152.41;;;22.03;51.97
4570;BME280;2297;51.442;6.996;2023-05-22T09:10:46;100152.59;;;22.00;52.46
4570;BME280;2297;51.442;6.996;2023-05-22T09:13:23;100162.97;;;21.15;54.53
4570;BME280;2297;51.442;6.996;2023-05-22T09:15:50;100162.53;;;21.08;54.79
4570;BME280;2297;51.442;6.996;2023-05-22T09:18:16;100156.53;;;21.17;54.63
4570;BME280;2297;51.442;6.996;2023-05-22T09:20:43;100156.78;;;21.27;54.49
4570;BME280;2297;51.442;6.996;2023-05-22T09:23:10;100161.75;;;21.33;54.00
4570;BME280;2297;51.442;6.996;2023-05-22T09:25:40;100165.72;;;21.53;53.64
4570;BME280;2297;51.442;6.996;2023-05-22T09:28:07;100160.25;;;21.81;52.92
4570;BME280;2297;51.442;6.996;2023-05-22T09:30:35;100164.34;;;21.73;52.36
4570;BME280;2297;51.442;6.996;2023-05-22T09:33:02;100162.41;;;21.37;53.39
4570;BME280;2297;51.442;6.996;2023-05-22T09:35:30;100164.81;;;20.87;54.53
4570;BME280;2297;51.442;6.996;2023-05-22T09:37:57;100164.63;;;21.30;53.50
4570;BME280;2297;51.442;6.996;2023-05-22T09:40:26;100172.41;;;21.48;53.05
4570;BME280;2297;51.442;6.996;2023-05-22T09:42:53;100172.94;;;21.53;52.82
4570;BME280;2297;51.442;6.996;2023-05-22T09:45:20;100169.53;;;21.51;52.52
4570;BME280;2297;51.442;6.996;2023-05-22T09:47:49;100170.91;;;21.16;52.61
4570;BME280;2297;51.442;6.996;2023-05-22T09:50:16;100165.03;;;21.11;53.65
4570;BME280;2297;51.442;6.996;2023-05-22T09:52:44;100167.88;;;21.08;53.60
4570;BME280;2297;51.442;6.996;2023-05-22T09:55:12;100175.53;;;21.67;52.07
4570;BME280;2297;51.442;6.996;2023-05-22T09:57:41;100174.09;;;21.36;51.75
4570;BME280;2297;51.442;6.996;2023-05-22T10:00:11;100169.94;;;21.17;52.43
4570;BME280;2297;51.442;6.996;2023-05-22T10:02:42;100165.03;;;21.24;52.08
4570;BME280;2297;51.442;6.996;2023-05-22T10:05:12;100179.16;;;21.40;51.77
4570;BME280;2297;51.442;6.996;2023-05-22T10:07:47;100171.16;;;21.26;52.12
4570;BME280;2297;51.442;6.996;2023-05-22T10:10:17;100173.97;;;21.37;51.60
4570;BME280;2297;51.442;6.996;2023-05-22T10:12:49;100175.75;;;21.64;51.11
4570;BME280;2297;51.442;6.996;2023-05-22T10:15:16;100173.97;;;21.37;51.31
4570;BME280;2297;51.442;6.996;2023-05-22T10:17:44;100175.09;;;21.07;52.57
4570;BME280;2297;51.442;6.996;2023-05-22T10:20:13;100179.69;;;21.05;52.27
4570;BME280;2297;51.442;6.996;2023-05-22T10:22:41;100174.25;;;21.60;51.10
4570;BME280;2297;51.442;6.996;2023-05-22T10:25:08;100175.31;;;21.70;50.47
4570;BME280;2297;51.442;6.996;2023-05-22T10:27:35;100167.97;;;21.98;49.90
4570;BME280;2297;51.442;6.996;2023-05-22T10:30:12;100168.88;;;21.20;51.22
4570;BME280;2297;51.442;6.996;2023-05-22T10:32:45;100171.09;;;21.40;50.70
4570;BME280;2297;51.442;6.996;2023-05-22T10:35:18;100170.78;;;21.58;50.59
4570;BME280;2297;51.442;6.996;2023-05-22T10:37:49;100168.47;;;21.26;51.42
4570;BME280;2297;51.442;6.996;2023-05-22T10:40:21;100166.19;;;21.20;51.05
4570;BME280;2297;51.442;6.996;2023-05-22T10:42:56;100166.19;;;21.20;51.06
4570;BME280;2297;51.442;6.996;2023-05-22T10:45:24;100161.66;;;21.73;49.53
4570;BME280;2297;51.442;6.996;2023-05-22T10:48:00;100156.19;;;21.75;48.85
4570;BME280;2297;51.442;6.996;2023-05-22T10:50:49;100155.94;;;22.17;47.57
4570;BME280;2297;51.442;6.996;2023-05-22T10:53:18;100150.97;;;22.23;47.14
4570;BME280;2297;51.442;6.996;2023-05-22T10:55:46;100147.94;;;22.28;46.71
4570;BME280;2297;51.442;6.996;2023-05-22T10:58:13;100152.03;;;22.58;46.28
4570;BME280;2297;51.442;6.996;2023-05-22T11:00:40;100154.00;;;22.19;46.59
4570;BME280;2297;51.442;6.996;2023-05-22T11:03:07;100153.72;;;22.48;46.27
4570;BME280;2297;51.442;6.996;2023-05-22T11:05:35;100152.44;;;22.27;46.09
4570;BME280;2297;51.442;6.996;2023-05-22T11:08:36;100155.22;;;22.39;46.36
4570;BME280;2297;51.442;6.996;2023-05-22T11:11:11;100147.72;;;22.55;46.33
4570;BME280;2297;51.442;6.996;2023-05-22T11:13:38;100156.69;;;22.56;46.19
4570;BME280;2297;51.442;6.996;2023-05-22T11:16:07;100152.06;;;21.95;47.92
4570;BME280;2297;51.442;6.996;2023-05-22T11:18:34;100152.97;;;21.83;47.80
4570;BME280;2297;51.442;6.996;2023-05-22T11:21:01;100150.56;;;22.17;47.21
4570;BME280;2297;51.442;6.996;2023-05-22T11:23:32;100145.53;;;22.49;46.34
4570;BME280;2297;51.442;6.996;2023-05-22T11:26:16;100144.50;;;22.26;46.87
4570;BME280;2297;51.442;6.996;2023-05-22T11:28:47;100135.38;;;22.53;45.92
4570;BME280;2297;51.442;6.996;2023-05-22T11:31:16;100138.38;;;22.61;46.43
4570;BME280;2297;51.442;6.996;2023-05-22T11:33:43;100141.66;;;22.40;46.98
4570;BME280;2297;51.442;6.996;2023-05-22T11:36:11;100132.19;;;22.48;46.60
4570;BME280;2297;51.442;6.996;2023-05-22T11:38:41;100129.28;;;21.88;48.30
4570;BME280;2297;51.442;6.996;2023-05-22T11:41:08;100130.19;;;22.38;47.01
4570;BME280;2297;51.442;6.996;2023-05-22T11:43:35;100134.13;;;22.46;47.19
4570;BME280;2297;51.442;6.996;2023-05-22T11:46:05;100132.53;;;22.67;46.13
4570;BME280;2297;51.442;6.996;2023-05-22T11:48:32;100139.41;;;22.71;46.48
4570;BME280;2297;51.442;6.996;2023-05-22T11:50:59;100136.91;;;23.28;45.15
4570;BME280;2297;51.442;6.996;2023-05-22T11:53:26;100140.31;;;22.59;46.45
4570;BME280;2297;51.442;6.996;2023-05-22T11:55:54;100137.25;;;22.39;46.23
4570;BME280;2297;51.442;6.996;2023-05-22T11:58:21;100131.25;;;22.60;46.93
4570;BME280;2297;51.442;6.996;2023-05-22T12:00:56;100121.91;;;23.01;45.48
4570;BME280;2297;51.442;6.996;2023-05-22T12:03:23;100127.50;;;22.87;45.96
4570;BME280;2297;51.442;6.996;2023-05-22T12:05:50;100116.28;;;22.93;46.40
4570;BME280;2297;51.442;6.996;2023-05-22T12:08:17;100123.19;;;22.60;47.19
4570;BME280;2297;51.442;6.996;2023-05-22T12:10:48;100112.50;;;23.07;46.73
4570;BME280;2297;51.442;6.996;2023-05-22T12:13:22;100110.31;;;23.59;46.35
4570;BME280;2297;51.442;6.996;2023-05-22T12:15:51;100116.66;;;23.35;46.20
4570;BME280;2297;51.442;6.996;2023-05-22T12:18:18;100106.63;;;23.02;46.92
4570;BME280;2297;51.442;6.996;2023-05-22T12:20:45;100114.13;;;23.56;45.88
4570;BME280;2297;51.442;6.996;2023-05-22T12:23:13;100110.19;;;23.61;45.80
4570;BME280;2297;51.442;6.996;2023-05-22T12:25:45;100109.44;;;23.81;46.25
4570;BME280;2297;51.442;6.996;2023-05-22T12:28:12;100109.69;;;23.67;45.90
4570;BME280;2297;51.442;6.996;2023-05-22T12:30:41;100105.53;;;24.19;45.31
4570;BME280;2297;51.442;6.996;2023-05-22T12:33:13;100111.31;;;24.03;45.50
4570;BME280;2297;51.442;6.996;2023-05-22T12:35:40;100108.56;;;23.92;45.93
4570;BME280;2297;51.442;6.996;2023-05-22T12:38:07;100100.97;;;24.31;44.94
4570;BME280;2297;51.442;6.996;2023-05-22T12:40:34;100104.91;;;24.27;45.32
4570;BME280;2297;51.442;6.996;2023-05-22T12:43:01;100092.72;;;24.44;44.94
4570;BME280;2297;51.442;6.996;2023-05-22T12:45:28;100104.91;;;24.71;45.53
4570;BME280;2297;51.442;6.996;2023-05-22T12:47:56;100093.75;;;24.09;44.34
4570;BME280;2297;51.442;6.996;2023-05-22T12:50:23;100092.66;;;24.12;44.85
4570;BME280;2297;51.442;6.996;2023-05-22T12:52:50;100094.97;;;23.71;44.94
4570;BME280;2297;51.442;6.996;2023-05-22T12:55:17;100095.22;;;24.13;44.52
4570;BME280;2297;51.442;6.996;2023-05-22T12:57:44;100094.00;;;24.61;43.26
4570;BME280;2297;51.442;6.996;2023-05-22T13:00:12;100098.47;;;24.51;43.40
4570;BME280;2297;51.442;6.996;2023-05-22T13:02:39;100091.53;;;24.69;43.53
4570;BME280;2297;51.442;6.996;2023-05-22T13:05:08;100099.47;;;25.03;43.14
4570;BME280;2297;51.442;6.996;2023-05-22T13:07:36;100104.41;;;24.77;42.54
4570;BME280;2297;51.442;6.996;2023-05-22T13:10:03;100094.06;;;25.03;41.67
4570;BME280;2297;51.442;6.996;2023-05-22T13:12:30;100101.16;;;25.37;41.40
4570;BME280;2297;51.442;6.996;2023-05-22T13:14:57;100091.03;;;24.97;42.05